createdAt,value
2022-12-26T00:02:22.912Z,43.13
2022-12-26T00:07:26.492Z,40.78
2022-12-26T00:12:30.053Z,42.03
2022-12-26T00:17:34.967Z,45.45
2022-12-26T00:22:38.534Z,41.42
2022-12-26T00:27:42.445Z,52.58
2022-12-26T00:32:47.315Z,43.42
2022-12-26T00:37:50.849Z,46.53
2022-12-26T00:42:55.445Z,51.95
2022-12-26T00:48:00.415Z,44.25
2022-12-26T00:53:04.008Z,47.00
2022-12-26T00:58:07.594Z,50.83
2022-12-26T01:03:13.446Z,51.08
2022-12-26T01:08:19.531Z,52.22
2022-12-26T01:13:27.471Z,56.47
2022-12-26T01:18:32.793Z,52.33
2022-12-26T01:23:36.716Z,46.50
2022-12-26T01:28:40.188Z,50.22
2022-12-26T01:33:45.164Z,49.25
2022-12-26T01:38:49.030Z,41.78
2022-12-26T01:43:56.066Z,45.45
2022-12-26T01:49:07.604Z,41.10
2022-12-26T01:54:40.535Z,41.10
2022-12-26T01:59:41.594Z,41.83
2022-12-26T02:05:09.283Z,42.50
2022-12-26T02:10:18.196Z,47.72
2022-12-26T02:15:21.952Z,46.22
2022-12-26T02:20:29.530Z,45.17
2022-12-26T02:26:05.273Z,49.15
2022-12-26T02:31:15.234Z,58.10
2022-12-26T02:36:30.782Z,50.22
2022-12-26T02:41:45.407Z,52.65
2022-12-26T02:47:06.460Z,52.10
2022-12-26T02:52:37.346Z,50.83
2022-12-26T02:58:06.791Z,45.90
2022-12-26T03:03:33.461Z,45.67
2022-12-26T03:09:00.274Z,49.15
2022-12-26T03:14:14.860Z,49.22
2022-12-26T03:19:22.673Z,43.47
2022-12-26T03:24:47.613Z,47.45
2022-12-26T03:30:20.354Z,44.45
2022-12-26T03:35:26.973Z,45.40
2022-12-26T03:41:07.914Z,49.38
2022-12-26T03:46:36.469Z,49.17
2022-12-26T03:52:05.681Z,55.03
2022-12-26T03:57:32.708Z,57.78
2022-12-26T04:02:57.967Z,59.10
2022-12-26T04:08:26.085Z,59.60
2022-12-26T04:13:55.436Z,59.80
2022-12-26T04:19:27.996Z,58.80
2022-12-26T04:24:55.932Z,59.92
2022-12-26T04:30:16.673Z,53.08
2022-12-26T04:35:44.121Z,55.58
2022-12-26T04:41:09.624Z,52.58
2022-12-26T04:46:15.173Z,47.53
2022-12-26T04:51:18.838Z,44.42
2022-12-26T04:56:23.819Z,43.53
2022-12-26T05:01:45.067Z,41.08
2022-12-26T05:07:06.363Z,39.97
2022-12-26T05:17:33.167Z,33.15
2022-12-26T05:22:57.210Z,28.48
2022-12-26T05:28:19.402Z,31.58
2022-12-26T05:33:40.912Z,26.40
2022-12-26T05:38:44.558Z,23.90
2022-12-26T05:43:49.618Z,21.65
2022-12-26T05:48:53.363Z,19.83
2022-12-26T05:53:56.961Z,16.17
2022-12-26T05:59:02.432Z,13.95
2022-12-26T06:04:05.963Z,18.35
2022-12-26T06:09:09.511Z,14.85
2022-12-26T06:14:14.458Z,13.23
2022-12-26T06:19:18.179Z,12.88
2022-12-26T06:24:21.751Z,15.55
2022-12-26T06:29:26.927Z,14.00
2022-12-26T06:34:30.639Z,15.13
2022-12-26T06:39:34.254Z,13.82
2022-12-26T06:44:39.230Z,14.60
2022-12-26T06:49:42.936Z,16.98
2022-12-26T06:54:46.532Z,13.75
2022-12-26T06:59:51.536Z,16.80
2022-12-26T07:04:55.177Z,19.52
2022-12-26T07:09:58.648Z,18.35
2022-12-26T07:15:03.658Z,16.98
2022-12-26T07:20:08.937Z,15.20
2022-12-26T07:25:12.507Z,17.23
2022-12-26T07:30:17.662Z,17.92
2022-12-26T07:35:21.408Z,16.88
2022-12-26T07:40:25.046Z,15.95
2022-12-26T07:45:30.089Z,17.08
2022-12-26T07:50:33.712Z,17.67
2022-12-26T07:55:37.333Z,19.45
2022-12-26T08:00:42.274Z,13.43
2022-12-26T08:05:46.171Z,13.65
2022-12-26T08:10:49.733Z,14.52
2022-12-26T08:15:54.722Z,13.70
2022-12-26T08:20:59.601Z,10.60
2022-12-26T08:26:06.736Z,15.43
2022-12-26T08:31:14.747Z,11.45
2022-12-26T08:36:19.210Z,10.45
2022-12-26T08:41:23.063Z,9.38
2022-12-26T08:46:28.113Z,13.50
2022-12-26T08:51:31.969Z,11.43
2022-12-26T08:56:35.573Z,11.93
2022-12-26T09:01:42.061Z,13.88
2022-12-26T09:06:45.979Z,11.40
2022-12-26T09:11:49.578Z,12.10
2022-12-26T09:16:54.763Z,7.90
2022-12-26T09:22:12.497Z,11.27
2022-12-26T09:27:16.395Z,9.57
2022-12-26T09:32:21.811Z,10.07
2022-12-26T09:37:25.693Z,7.05
2022-12-26T09:42:40.628Z,7.25
2022-12-26T09:47:54.654Z,9.13
2022-12-26T09:53:00.279Z,9.73
2022-12-26T09:58:13.254Z,10.77
2022-12-26T10:03:18.616Z,11.02
2022-12-26T10:08:28.835Z,8.48
2022-12-26T10:13:40.226Z,7.83
2022-12-26T10:18:58.285Z,10.52
2022-12-26T10:24:08.478Z,7.47
2022-12-26T10:29:22.108Z,4.77
2022-12-26T10:34:31.208Z,9.25
2022-12-26T10:39:41.182Z,10.43
2022-12-26T10:44:45.117Z,9.35
2022-12-26T10:49:50.470Z,13.55
2022-12-26T10:55:28.178Z,13.68
2022-12-26T11:00:24.206Z,13.57
2022-12-26T11:11:04.289Z,13.70
2022-12-26T11:16:09.095Z,18.80
2022-12-26T11:21:23.450Z,15.27
2022-12-26T11:26:29.722Z,14.70
2022-12-26T11:31:33.590Z,17.60
2022-12-26T11:36:46.529Z,14.15
2022-12-26T11:41:50.818Z,14.35
2022-12-26T11:46:58.753Z,13.63
2022-12-26T11:52:25.051Z,10.77
2022-12-26T11:57:30.703Z,10.65
2022-12-26T12:02:36.257Z,8.60
2022-12-26T12:08:05.073Z,11.18
2022-12-26T12:13:16.478Z,7.80
2022-12-26T12:18:27.941Z,8.75
2022-12-26T12:23:48.537Z,7.97
2022-12-26T12:29:22.500Z,13.75
2022-12-26T12:34:38.838Z,7.82
2022-12-26T12:39:56.090Z,11.02
2022-12-26T12:45:18.404Z,3.75
2022-12-26T12:50:30.117Z,7.53
2022-12-26T12:55:49.330Z,11.15
2022-12-26T13:00:57.520Z,8.93
2022-12-26T13:06:07.954Z,8.65
2022-12-26T13:11:20.625Z,12.50
2022-12-26T13:16:29.941Z,11.15
2022-12-26T13:21:37.787Z,15.50
2022-12-26T13:26:46.959Z,9.82
2022-12-26T13:31:52.265Z,12.50
2022-12-26T13:37:00.839Z,8.50
2022-12-26T13:42:50.402Z,10.32
2022-12-26T13:47:53.944Z,11.18
2022-12-26T13:52:57.864Z,6.47
2022-12-26T13:58:37.102Z,9.98
2022-12-26T14:03:55.729Z,11.07
2022-12-26T14:09:21.766Z,7.03
2022-12-26T14:14:38.291Z,8.68
2022-12-26T14:19:51.997Z,9.18
2022-12-26T14:25:06.618Z,15.32
2022-12-26T14:30:25.935Z,8.73
2022-12-26T14:35:35.106Z,9.52
2022-12-26T14:40:40.286Z,23.67
2022-12-26T14:45:49.763Z,7.40
2022-12-26T14:50:55.083Z,6.80
2022-12-26T14:56:00.640Z,8.82
2022-12-26T15:02:01.011Z,7.18
2022-12-26T15:07:30.320Z,4.87
2022-12-26T15:13:12.129Z,4.57
2022-12-26T15:18:59.609Z,8.30
2022-12-26T15:25:18.194Z,9.48
2022-12-26T15:30:20.638Z,7.97
2022-12-26T15:35:33.716Z,11.93
2022-12-26T15:40:43.773Z,6.90
2022-12-26T15:45:51.985Z,8.55
2022-12-26T15:51:02.613Z,7.60
2022-12-26T15:56:39.038Z,7.20
2022-12-26T16:01:44.425Z,11.52
2022-12-26T16:07:07.588Z,11.05
2022-12-26T16:12:27.173Z,9.45
2022-12-26T16:17:31.409Z,5.40
2022-12-26T16:22:46.975Z,5.15
2022-12-26T16:27:54.792Z,10.38
2022-12-26T16:33:00.232Z,8.25
2022-12-26T16:38:07.698Z,7.97
2022-12-26T16:43:25.996Z,6.15
2022-12-26T16:48:31.911Z,6.18
2022-12-26T16:53:46.071Z,8.48
2022-12-26T16:58:51.175Z,6.65
2022-12-26T17:03:59.522Z,10.00
2022-12-26T17:09:09.639Z,9.40
2022-12-26T17:14:20.526Z,8.00
2022-12-26T17:19:29.249Z,9.15
2022-12-26T17:24:34.142Z,10.50
2022-12-26T17:29:50.141Z,9.48
2022-12-26T17:34:53.683Z,4.57
2022-12-26T17:40:05.937Z,9.70
2022-12-26T17:45:15.447Z,6.53
2022-12-26T17:50:19.013Z,9.82
2022-12-26T17:55:26.705Z,11.48
2022-12-26T18:00:31.003Z,10.63
2022-12-26T18:05:35.429Z,10.55
2022-12-26T18:10:40.315Z,9.02
2022-12-26T18:15:44.103Z,10.73
2022-12-26T18:20:47.663Z,10.48
2022-12-26T18:25:54.763Z,9.13
2022-12-26T18:30:58.598Z,13.63
2022-12-26T18:36:07.421Z,14.18
2022-12-26T18:41:15.674Z,10.45
2022-12-26T18:46:21.888Z,12.45
2022-12-26T18:51:28.052Z,13.60
2022-12-26T18:56:33.058Z,11.77
2022-12-26T19:01:36.815Z,15.98
2022-12-26T19:06:40.805Z,11.73
2022-12-26T19:11:45.978Z,15.25
2022-12-26T19:16:49.891Z,13.02
2022-12-26T19:21:53.705Z,11.25
2022-12-26T19:26:58.823Z,12.50
2022-12-26T19:32:02.716Z,17.08
2022-12-26T19:37:06.493Z,11.38
2022-12-26T19:42:11.465Z,9.63
2022-12-26T19:47:15.354Z,10.65
2022-12-26T19:52:19.629Z,9.00
2022-12-26T19:57:25.033Z,12.52
2022-12-26T20:02:29.161Z,9.27
2022-12-26T20:07:33.186Z,13.75
2022-12-26T20:12:38.217Z,7.93
2022-12-26T20:17:42.160Z,9.45
2022-12-26T20:22:51.218Z,12.23
2022-12-26T20:27:58.141Z,13.70
2022-12-26T20:33:01.852Z,9.98
2022-12-26T20:38:05.908Z,16.33
2022-12-26T20:43:11.002Z,14.15
2022-12-26T20:48:14.785Z,9.70
2022-12-26T20:53:18.669Z,16.73
2022-12-26T20:58:25.596Z,13.60
2022-12-26T21:03:30.282Z,15.90
2022-12-26T21:08:34.059Z,13.38
2022-12-26T21:13:40.294Z,7.90
2022-12-26T21:18:44.569Z,10.38
2022-12-26T21:23:49.469Z,13.38
2022-12-26T21:28:58.551Z,13.27
2022-12-26T21:34:03.965Z,13.35
2022-12-26T21:39:09.114Z,10.07
2022-12-26T21:44:14.379Z,15.48
2022-12-26T21:49:18.065Z,12.73
2022-12-26T21:54:43.439Z,11.15
2022-12-26T21:59:59.907Z,7.17
2022-12-26T22:05:07.614Z,10.00
2022-12-26T22:10:32.505Z,14.75
2022-12-26T22:16:00.522Z,13.07
2022-12-26T22:21:10.876Z,21.90
2022-12-26T22:26:17.139Z,16.33
2022-12-26T22:31:24.907Z,17.25
2022-12-26T22:36:29.818Z,10.98
2022-12-26T22:41:34.273Z,16.88
2022-12-26T22:46:39.386Z,11.68
2022-12-26T22:51:43.133Z,10.43
2022-12-26T22:56:46.679Z,12.10
2022-12-26T23:01:51.690Z,12.77
2022-12-26T23:06:55.814Z,17.58
2022-12-26T23:12:13.821Z,10.82
2022-12-26T23:17:39.062Z,15.60
2022-12-26T23:22:43.052Z,12.00
2022-12-26T23:28:03.974Z,14.55
2022-12-26T23:33:08.927Z,11.32
2022-12-26T23:38:12.596Z,16.67
2022-12-26T23:43:16.163Z,10.60
2022-12-26T23:48:21.127Z,19.55
2022-12-26T23:53:24.673Z,11.80
2022-12-26T23:58:28.218Z,17.30
